Keysville, GA (30811)

4:30 AM EDT on September 18, 2014 (GMT -0400)
Heatwole Family Allen Rd.,North Burke County | Change Station
CLOSE
Current Station
Personal Weather Station
Location: Hephzibah, GA
Elevation: 364 ft
Nearby Weather Stations

Elev 364 ft 33.19 °N, 82.02 °W | Updated 4 minutes ago

Mostly Cloudy
Mostly Cloudy
69.2 °F
Feels Like 69.2 °F
N
0.0
Wind Variable Wind from North
Gusts 0.0 mph

Today
High -- | Low -- °F
--% Chance of Precip.
Yesterday
High -- | Low -- °F
Precip. -- in
7:14 AM 7:31 PM
Waning Crescent, 29% visible
Pressure 29.89 in
Visibility 1.0 miles
Clouds Scattered Clouds 300 ft
Mostly Cloudy 2400 ft
Dew Point 69 °F
Humidity 99%
Rainfall 0.00 in
Snow Depth Not available.
UV 0 out of 12
Pollen 8.10 out of 12
Ozone Good
PM2.5 Good
Flu Activity Not available.
SPECI KAGS 180819Z AUTO 00000KT 1SM BR SCT003 BKN024 19/19 A2989 RMK AO2 T01940189 RVRNO

More Conditions Fewer Conditions

Pressure 29.89 in
Visibility 1.0 miles
Clouds Scattered Clouds 300 ft
Mostly Cloudy 2400 ft
Dew Point 69 °F
Humidity 99%
Rainfall 0.00 in
Snow Depth Not available.
UV 0 out of 12
Pollen 8.10 out of 12
Ozone Good
PM2.5 Good
Flu Activity Not available.
SPECI KAGS 180819Z AUTO 00000KT 1SM BR SCT003 BKN024 19/19 A2989 RMK AO2 T01940189 RVRNO

More Conditions Fewer Conditions

10-Day Weather Forecast

Almanac

Astronomy

Sep. 18, 2014 Rise Set
Actual Time 7:14 AM EDT 7:31 PM EDT
Civil Twilight 6:49 AM EDT 7:55 PM EDT
Nautical Twilight 6:20 AM EDT 8:24 PM EDT
Astronomical Twilight 5:51 AM EDT 8:54 PM EDT
Moon 2:17 AM EDT 4:10 PM EDT
Length of Visible Light 13h 06m
Length of Day
12h 16m
Tomorrow will be 2m 1s shorter.
Waning Crescent, 29% of the Moon is Illuminated
Today
Waning Crescent
Sep 24
New
Oct 1
First Quarter
Oct 8
Full
Oct 15
Last Quarter

Today's Extremes

State Highs State Lows

Community

WunderPhotos

Upload Photos

1,754,310 photos uploaded!

Nearby

Air Quality

  Air Quality AQ Index Pollutant
Yesterday Good
PM2.5
Yesterday Good
OZONE
Current Good
PM2.5
Current Good
OZONE
Thursday Good
OZONE

Snow Depth

Station Depth Elevation
No new snow has been reported.

Earthquake Activity

City Distance Mag. Time & Date
No recent earthquake activity has been reported nearby.
Minimum magnitude displayed is 2.5.

Coastal Water Temperatures

Place Temperature
No Stations Reporting

Nearby Weather Stations